Time;durP1;ratioP1;P1;durP2;ratioP2;P2;SDS_P1;SDS_P2;PMS_P1;PMS_P2;Temp;Humidity;BMP_temperature;BMP_pressure;BME280_temperature;BME280_humidity;BME280_pressure;Samples;Min_cycle;Max_cycle;Signal;HPM_P1;HPM_P2
2024/03/19 00:00:31;;;;;;;;;;;;;;;;;;2191704;67;2122;-25
2024/03/19 00:03:01;;;;;;;;;;;;;;;;;;2194530;66;1756;-25
2024/03/19 00:05:31;;;;;;;;;;;;;;;;;;2188405;59;1654;-25
2024/03/19 00:08:02;;;;;;;;;;;;;;;;;;2192016;67;1934;-25
2024/03/19 00:10:32;;;;;;;;;;;;;;;;;;2189953;59;1769;-25
2024/03/19 00:13:02;;;;;;;;;;;;;;;;;;2194332;59;1335;-25
2024/03/19 00:15:32;;;;;;;;;;;;;;;;;;2190589;59;1276;-25
2024/03/19 00:18:03;;;;;;;;;;;;;;;;;;2194268;66;1624;-25
2024/03/19 00:20:34;;;;;;;;;;;;;;;;;;2193738;66;1393;-25
2024/03/19 00:23:04;;;;;;;;;;;;;;;;;;2194555;59;1668;-25
2024/03/19 00:25:35;;;;;;;;;;;;;;;;;;2194225;67;1406;-25
2024/03/19 00:28:05;;;;;;;;;;;;;;;;;;2193983;67;1913;-25
2024/03/19 00:30:35;;;;;;;;;;;;;;;;;;2192383;67;1488;-25
2024/03/19 00:33:06;;;;;;;;;;;;;;;;;;2194229;59;1561;-25
2024/03/19 00:35:42;;;;;;;;;;;;;;;;;;2194039;67;1305;-25
2024/03/19 00:38:13;;;;;;;;;;;;;;;;;;2193916;59;1459;-25
2024/03/19 00:40:43;;;;;;;;;;;;;;;;;;2195218;59;1738;-25
2024/03/19 00:43:13;;;;;;;;;;;;;;;;;;2193228;67;1369;-25
2024/03/19 00:45:43;;;;;;;;;;;;;;;;;;2192264;59;1697;-25
2024/03/19 00:48:14;;;;;;;;;;;;;;;;;;2193835;59;1929;-25
2024/03/19 00:50:45;;;;;;;;;;;;;;;;;;2195973;66;1384;-25
2024/03/19 00:53:15;;;;;;;;;;;;;;;;;;2194276;66;1263;-25
2024/03/19 00:55:45;;;;;;;;;;;;;;;;;;2193077;66;1746;-25
2024/03/19 00:58:17;;;;;;;;;;;;;;;;;;2194371;59;1418;-25
2024/03/19 01:00:47;;;;;;;;;;;;;;;;;;2205309;66;1325;-25
2024/03/19 01:03:20;;;;;;;;;;;;;;;;;;2202979;66;1626;-24
2024/03/19 01:05:51;;;;;;;;;;;;;;;;;;2195280;66;1319;-24
2024/03/19 01:08:21;;;;;;;;;;;;;;;;;;2190604;59;1943;-24
2024/03/19 01:10:52;;;;;;;;;;;;;;;;;;2195212;59;1556;-24
2024/03/19 01:13:22;;;;;;;;;;;;;;;;;;2194076;58;1422;-24
2024/03/19 01:15:53;;;;;;;;;;;;;;;;;;2195421;66;1187;-24
2024/03/19 01:18:23;;;;;;;;;;;;;;;;;;2190385;66;1351;-24
2024/03/19 01:20:54;;;;;;;;;;;;;;;;;;2193052;67;1235;-24
2024/03/19 01:23:24;;;;;;;;;;;;;;;;;;2191436;59;1597;-24
2024/03/19 01:25:54;;;;;;;;;;;;;;;;;;2191947;67;1453;-24
2024/03/19 01:28:25;;;;;;;;;;;;;;;;;;2194252;67;1936;-24
2024/03/19 01:30:55;;;;;;;;;;;;;;;;;;2195655;66;1266;-24
2024/03/19 01:33:25;;;;;;;;;;;;;;;;;;2187174;67;1863;-24
2024/03/19 01:35:56;;;;;;;;;;;;;;;;;;2192000;67;1568;-24
2024/03/19 01:38:26;;;;;;;;;;;;;;;;;;2194227;59;1585;-24
2024/03/19 01:40:56;;;;;;;;;;;;;;;;;;2192768;59;1873;-24
2024/03/19 01:43:26;;;;;;;;;;;;;;;;;;2191242;67;1280;-24
2024/03/19 01:46:05;;;;;;;;;;;;;;;;;;2194566;59;1337;-24
2024/03/19 01:48:39;;;;;;;;;;;;;;;;;;2191988;59;1948;-24
2024/03/19 01:51:09;;;;;;;;;;;;;;;;;;2195412;66;1465;-24
2024/03/19 01:53:39;;;;;;;;;;;;;;;;;;2205937;66;1807;-24
2024/03/19 01:56:10;;;;;;;;;;;;;;;;;;2195428;66;1343;-24
2024/03/19 01:58:43;;;;;;;;;;;;;;;;;;2194462;59;1264;-24
2024/03/19 02:01:15;;;;;;;;;;;;;;;;;;2190446;59;2067;-24
2024/03/19 02:03:46;;;;;;;;;;;;;;;;;;2193840;66;1459;-24
2024/03/19 02:06:16;;;;;;;;;;;;;;;;;;2192722;60;1740;-24
2024/03/19 02:09:03;;;;;;;;;;;;;;;;;;2194108;66;1978;-24
2024/03/19 02:11:34;;;;;;;;;;;;;;;;;;2193725;59;1568;-24
2024/03/19 02:14:04;;;;;;;;;;;;;;;;;;2191046;59;1936;-25
2024/03/19 02:16:35;;;;;;;;;;;;;;;;;;2193706;66;1687;-24
2024/03/19 02:19:05;;;;;;;;;;;;;;;;;;2191474;67;1736;-24
2024/03/19 02:21:35;;;;;;;;;;;;;;;;;;2192529;66;1570;-24
2024/03/19 02:24:06;;;;;;;;;;;;;;;;;;2194243;59;1862;-24
2024/03/19 02:26:37;;;;;;;;;;;;;;;;;;2189176;66;2035;-24
2024/03/19 02:29:07;;;;;;;;;;;;;;;;;;2190629;67;1801;-24
2024/03/19 02:31:37;;;;;;;;;;;;;;;;;;2193142;66;1735;-24
2024/03/19 02:34:07;;;;;;;;;;;;;;;;;;2205197;58;1807;-24
2024/03/19 02:36:37;;;;;;;;;;;;;;;;;;2205016;66;1725;-24
2024/03/19 02:39:10;;;;;;;;;;;;;;;;;;2195337;59;1809;-24
2024/03/19 02:41:40;;;;;;;;;;;;;;;;;;2193781;66;1831;-24
2024/03/19 02:44:10;;;;;;;;;;;;;;;;;;2195397;66;1668;-24
2024/03/19 02:46:41;;;;;;;;;;;;;;;;;;2194947;59;1940;-24
2024/03/19 02:49:11;;;;;;;;;;;;;;;;;;2192028;60;1604;-24
2024/03/19 02:51:41;;;;;;;;;;;;;;;;;;2193444;66;1678;-24
2024/03/19 02:54:11;;;;;;;;;;;;;;;;;;2194008;67;1505;-24
2024/03/19 02:56:42;;;;;;;;;;;;;;;;;;2190013;67;1872;-24
2024/03/19 02:59:12;;;;;;;;;;;;;;;;;;2193626;59;1471;-24
2024/03/19 03:01:42;;;;;;;;;;;;;;;;;;2192853;59;1534;-24
2024/03/19 03:04:12;;;;;;;;;;;;;;;;;;2187472;59;2105;-23
2024/03/19 03:06:42;;;;;;;;;;;;;;;;;;2193094;59;1988;-24
2024/03/19 03:09:13;;;;;;;;;;;;;;;;;;2193278;67;1681;-24
2024/03/19 03:11:43;;;;;;;;;;;;;;;;;;2192253;59;1850;-23
2024/03/19 03:14:14;;;;;;;;;;;;;;;;;;2193090;66;1736;-23
2024/03/19 03:16:44;;;;;;;;;;;;;;;;;;2188946;67;1856;-24
2024/03/19 03:19:15;;;;;;;;;;;;;;;;;;2194059;66;1588;-24
2024/03/19 03:21:45;;;;;;;;;;;;;;;;;;2192521;66;1550;-23
2024/03/19 03:24:16;;;;;;;;;;;;;;;;;;2190396;59;1911;-23
2024/03/19 03:26:46;;;;;;;;;;;;;;;;;;2190333;67;1961;-23
2024/03/19 03:29:16;;;;;;;;;;;;;;;;;;2193171;66;1420;-23
2024/03/19 03:31:46;;;;;;;;;;;;;;;;;;2193409;66;1696;-23
2024/03/19 03:34:17;;;;;;;;;;;;;;;;;;2193080;59;1755;-23
2024/03/19 03:36:49;;;;;;;;;;;;;;;;;;2193211;67;1790;-23
2024/03/19 03:39:21;;;;;;;;;;;;;;;;;;2193169;59;1908;-23
2024/03/19 03:41:51;;;;;;;;;;;;;;;;;;2193714;67;1640;-24
2024/03/19 03:44:21;;;;;;;;;;;;;;;;;;2191723;67;1585;-24
2024/03/19 03:46:52;;;;;;;;;;;;;;;;;;2194542;59;1934;-24
2024/03/19 03:49:22;;;;;;;;;;;;;;;;;;2188445;59;1524;-24
2024/03/19 03:51:52;;;;;;;;;;;;;;;;;;2191068;66;1544;-24
2024/03/19 03:54:23;;;;;;;;;;;;;;;;;;2188371;67;1728;-24
2024/03/19 03:56:54;;;;;;;;;;;;;;;;;;2196125;66;1393;-24
2024/03/19 03:59:24;;;;;;;;;;;;;;;;;;2191881;59;1453;-24
2024/03/19 04:01:54;;;;;;;;;;;;;;;;;;2194240;59;1540;-24
2024/03/19 04:04:24;;;;;;;;;;;;;;;;;;2192047;67;1610;-24
2024/03/19 04:06:55;;;;;;;;;;;;;;;;;;2190203;59;1987;-24
2024/03/19 04:09:25;;;;;;;;;;;;;;;;;;2188857;66;1629;-24
2024/03/19 04:11:55;;;;;;;;;;;;;;;;;;2193859;59;2076;-24
2024/03/19 04:14:26;;;;;;;;;;;;;;;;;;2192789;59;1660;-24
2024/03/19 04:16:56;;;;;;;;;;;;;;;;;;2190021;66;2154;-24
2024/03/19 04:19:26;;;;;;;;;;;;;;;;;;2189388;67;1907;-24
2024/03/19 04:21:56;;;;;;;;;;;;;;;;;;2194023;66;1742;-24
2024/03/19 04:24:27;;;;;;;;;;;;;;;;;;2203692;66;1720;-24
2024/03/19 04:26:57;;;;;;;;;;;;;;;;;;2191398;66;1946;-24
2024/03/19 04:29:27;;;;;;;;;;;;;;;;;;2191946;66;1535;-24
2024/03/19 04:31:57;;;;;;;;;;;;;;;;;;2193678;67;1674;-24
2024/03/19 04:34:28;;;;;;;;;;;;;;;;;;2192690;66;1812;-24
2024/03/19 04:36:58;;;;;;;;;;;;;;;;;;2190056;67;1684;-24
2024/03/19 04:39:28;;;;;;;;;;;;;;;;;;2192975;59;2051;-24
2024/03/19 04:41:58;;;;;;;;;;;;;;;;;;2194007;67;1510;-24
2024/03/19 04:44:28;;;;;;;;;;;;;;;;;;2193094;59;1625;-23
2024/03/19 04:46:59;;;;;;;;;;;;;;;;;;2194473;59;1996;-23
2024/03/19 04:49:29;;;;;;;;;;;;;;;;;;2189483;59;1936;-23
2024/03/19 04:51:59;;;;;;;;;;;;;;;;;;2193022;67;1606;-23
2024/03/19 04:54:29;;;;;;;;;;;;;;;;;;2189806;66;1777;-23
2024/03/19 04:56:59;;;;;;;;;;;;;;;;;;2193829;59;1585;-23
2024/03/19 04:59:30;;;;;;;;;;;;;;;;;;2192720;66;1620;-23
2024/03/19 05:02:00;;;;;;;;;;;;;;;;;;2192376;67;1516;-23
2024/03/19 05:04:31;;;;;;;;;;;;;;;;;;2192951;66;1651;-23
2024/03/19 05:07:02;;;;;;;;;;;;;;;;;;2187540;59;2006;-23
2024/03/19 05:09:33;;;;;;;;;;;;;;;;;;2190946;66;1556;-23
2024/03/19 05:12:03;;;;;;;;;;;;;;;;;;2190845;60;1598;-23
2024/03/19 05:14:33;;;;;;;;;;;;;;;;;;2193083;66;1571;-23
2024/03/19 05:17:04;;;;;;;;;;;;;;;;;;2191257;67;1966;-23
2024/03/19 05:19:34;;;;;;;;;;;;;;;;;;2192397;66;1540;-23
2024/03/19 05:22:04;;;;;;;;;;;;;;;;;;2194072;59;1882;-24
2024/03/19 05:24:35;;;;;;;;;;;;;;;;;;2192436;66;1429;-24
2024/03/19 05:27:05;;;;;;;;;;;;;;;;;;2191894;67;1951;-24
2024/03/19 05:29:35;;;;;;;;;;;;;;;;;;2190196;66;1373;-24
2024/03/19 05:32:06;;;;;;;;;;;;;;;;;;2191716;66;1444;-23
2024/03/19 05:34:36;;;;;;;;;;;;;;;;;;2192419;59;1689;-23
2024/03/19 05:37:07;;;;;;;;;;;;;;;;;;2194225;66;1597;-24
2024/03/19 05:39:37;;;;;;;;;;;;;;;;;;2192577;59;1734;-24
2024/03/19 05:42:07;;;;;;;;;;;;;;;;;;2193986;67;1593;-24
2024/03/19 05:44:37;;;;;;;;;;;;;;;;;;2187361;67;1949;-24
2024/03/19 05:47:07;;;;;;;;;;;;;;;;;;2194323;66;1935;-23
2024/03/19 05:49:37;;;;;;;;;;;;;;;;;;2189087;59;1542;-23
2024/03/19 05:52:08;;;;;;;;;;;;;;;;;;2190794;66;1499;-24
2024/03/19 05:54:38;;;;;;;;;;;;;;;;;;2192438;67;1571;-23
2024/03/19 05:57:08;;;;;;;;;;;;;;;;;;2193345;59;1553;-23
2024/03/19 05:59:39;;;;;;;;;;;;;;;;;;2192503;59;2151;-24
2024/03/19 06:02:10;;;;;;;;;;;;;;;;;;2186903;59;2290;-23
2024/03/19 06:04:40;;;;;;;;;;;;;;;;;;2190606;59;2600;-23
2024/03/19 06:07:11;;;;;;;;;;;;;;;;;;2193850;59;2943;-23
2024/03/19 06:09:43;;;;;;;;;;;;;;;;;;2192054;59;2696;-23
2024/03/19 06:12:14;;;;;;;;;;;;;;;;;;2193312;59;2259;-23
2024/03/19 06:14:44;;;;;;;;;;;;;;;;;;2208481;58;2218;-23
2024/03/19 06:17:14;;;;;;;;;;;;;;;;;;2190217;59;2087;-23
2024/03/19 06:19:45;;;;;;;;;;;;;;;;;;2194495;59;2305;-23
2024/03/19 06:22:15;;;;;;;;;;;;;;;;;;2192089;58;2191;-23
2024/03/19 06:24:46;;;;;;;;;;;;;;;;;;2192378;59;2340;-23
2024/03/19 06:27:16;;;;;;;;;;;;;;;;;;2191787;59;2657;-23
2024/03/19 06:29:46;;;;;;;;;;;;;;;;;;2192084;59;2613;-23
2024/03/19 06:32:18;;;;;;;;;;;;;;;;;;2190720;58;2746;-23
2024/03/19 06:34:48;;;;;;;;;;;;;;;;;;2188611;59;2631;-23
2024/03/19 06:37:18;;;;;;;;;;;;;;;;;;2195365;59;2587;-23
2024/03/19 06:39:49;;;;;;;;;;;;;;;;;;2193971;59;2192;-23
2024/03/19 06:42:19;;;;;;;;;;;;;;;;;;2194749;59;1745;-23
2024/03/19 06:44:50;;;;;;;;;;;;;;;;;;2194213;59;2176;-24
2024/03/19 06:47:20;;;;;;;;;;;;;;;;;;2193474;59;1937;-23
2024/03/19 06:49:50;;;;;;;;;;;;;;;;;;2190042;59;1324;-24
2024/03/19 06:52:21;;;;;;;;;;;;;;;;;;2194688;59;2459;-24
2024/03/19 06:54:51;;;;;;;;;;;;;;;;;;2193781;59;1387;-24
2024/03/19 06:57:21;;;;;;;;;;;;;;;;;;2194597;59;2060;-24
2024/03/19 06:59:52;;;;;;;;;;;;;;;;;;2192903;58;2129;-24
2024/03/19 07:02:23;;;;;;;;;;;;;;;;;;2190714;59;2124;-24
2024/03/19 07:04:53;;;;;;;;;;;;;;;;;;2192972;59;2417;-24
2024/03/19 07:07:24;;;;;;;;;;;;;;;;;;2203973;59;2036;-24
2024/03/19 07:09:55;;;;;;;;;;;;;;;;;;2193663;59;1490;-24
2024/03/19 07:12:25;;;;;;;;;;;;;;;;;;2194833;59;1939;-24
2024/03/19 07:14:57;;;;;;;;;;;;;;;;;;2194329;59;1260;-24
2024/03/19 07:17:27;;;;;;;;;;;;;;;;;;2195036;67;1634;-24
2024/03/19 07:19:58;;;;;;;;;;;;;;;;;;2190926;59;2170;-24
2024/03/19 07:22:29;;;;;;;;;;;;;;;;;;2191853;67;1785;-24
2024/03/19 07:24:59;;;;;;;;;;;;;;;;;;2190022;59;2227;-24
2024/03/19 07:27:29;;;;;;;;;;;;;;;;;;2194411;59;1941;-24
2024/03/19 07:30:00;;;;;;;;;;;;;;;;;;2193897;59;1941;-24
2024/03/19 07:32:30;;;;;;;;;;;;;;;;;;2193992;66;1710;-24
2024/03/19 07:35:01;;;;;;;;;;;;;;;;;;2190450;59;2246;-24
2024/03/19 07:37:31;;;;;;;;;;;;;;;;;;2194363;59;1442;-24
2024/03/19 07:40:03;;;;;;;;;;;;;;;;;;2191647;59;1949;-24
2024/03/19 07:42:33;;;;;;;;;;;;;;;;;;2194393;66;1487;-24
2024/03/19 07:45:05;;;;;;;;;;;;;;;;;;2192176;58;2034;-24
2024/03/19 07:47:35;;;;;;;;;;;;;;;;;;2192608;67;1942;-24
2024/03/19 07:50:07;;;;;;;;;;;;;;;;;;2193147;59;1705;-24
2024/03/19 07:52:38;;;;;;;;;;;;;;;;;;2189723;59;2184;-24
2024/03/19 07:55:08;;;;;;;;;;;;;;;;;;2194431;59;1329;-24
2024/03/19 07:57:39;;;;;;;;;;;;;;;;;;2189427;59;2263;-24
2024/03/19 08:00:09;;;;;;;;;;;;;;;;;;2194068;66;1277;-24
2024/03/19 08:02:40;;;;;;;;;;;;;;;;;;2189033;59;2187;-24
2024/03/19 08:05:13;;;;;;;;;;;;;;;;;;2191733;67;1648;-24
2024/03/19 08:07:43;;;;;;;;;;;;;;;;;;2191107;59;2204;-24
2024/03/19 08:10:14;;;;;;;;;;;;;;;;;;2192550;59;1825;-24
2024/03/19 08:12:44;;;;;;;;;;;;;;;;;;2190970;59;2228;-24
2024/03/19 08:15:14;;;;;;;;;;;;;;;;;;2195256;67;1406;-24
2024/03/19 08:17:45;;;;;;;;;;;;;;;;;;2193648;59;2105;-24
2024/03/19 08:20:16;;;;;;;;;;;;;;;;;;2194344;60;2396;-24
2024/03/19 08:22:46;;;;;;;;;;;;;;;;;;2194345;59;1265;-24
2024/03/19 08:25:17;;;;;;;;;;;;;;;;;;2191623;59;2162;-24
2024/03/19 08:27:47;;;;;;;;;;;;;;;;;;2193831;59;2007;-24
2024/03/19 08:30:19;;;;;;;;;;;;;;;;;;2194600;59;2268;-24
2024/03/19 08:32:51;;;;;;;;;;;;;;;;;;2194005;66;1251;-24
2024/03/19 08:35:21;;;;;;;;;;;;;;;;;;2205797;58;2255;-24
2024/03/19 08:37:51;;;;;;;;;;;;;;;;;;2189980;59;2032;-24
2024/03/19 08:40:22;;;;;;;;;;;;;;;;;;2194330;59;2384;-24
2024/03/19 08:42:54;;;;;;;;;;;;;;;;;;2190521;66;1718;-24
2024/03/19 08:45:24;;;;;;;;;;;;;;;;;;2194152;59;1807;-24
2024/03/19 08:47:55;;;;;;;;;;;;;;;;;;2192586;59;2671;-24
2024/03/19 08:50:26;;;;;;;;;;;;;;;;;;2191038;66;1353;-24
2024/03/19 08:52:56;;;;;;;;;;;;;;;;;;2193406;59;2094;-24
2024/03/19 08:55:26;;;;;;;;;;;;;;;;;;2207301;66;1227;-24
2024/03/19 08:57:56;;;;;;;;;;;;;;;;;;2193434;59;2244;-24
2024/03/19 09:00:27;;;;;;;;;;;;;;;;;;2194216;59;2052;-24
2024/03/19 09:02:57;;;;;;;;;;;;;;;;;;2191741;59;2610;-24
2024/03/19 09:05:27;;;;;;;;;;;;;;;;;;2190591;59;2371;-24
2024/03/19 09:07:58;;;;;;;;;;;;;;;;;;2190367;59;2675;-24
2024/03/19 09:10:28;;;;;;;;;;;;;;;;;;2194573;59;2381;-24
2024/03/19 09:12:58;;;;;;;;;;;;;;;;;;2193600;59;2135;-24
2024/03/19 09:15:28;;;;;;;;;;;;;;;;;;2191015;59;2223;-24
2024/03/19 09:17:59;;;;;;;;;;;;;;;;;;2190660;67;1637;-24
2024/03/19 09:20:29;;;;;;;;;;;;;;;;;;2192646;59;2112;-24
2024/03/19 09:22:59;;;;;;;;;;;;;;;;;;2205978;58;1717;-24
2024/03/19 09:25:30;;;;;;;;;;;;;;;;;;2195757;66;2243;-24
2024/03/19 09:28:00;;;;;;;;;;;;;;;;;;2194173;66;2003;-24
2024/03/19 09:30:31;;;;;;;;;;;;;;;;;;2190297;59;2019;-24
2024/03/19 09:33:02;;;;;;;;;;;;;;;;;;2193208;66;1961;-24
2024/03/19 09:35:34;;;;;;;;;;;;;;;;;;2195056;59;1973;-24
2024/03/19 09:38:04;;;;;;;;;;;;;;;;;;2190954;59;1783;-24
2024/03/19 09:40:36;;;;;;;;;;;;;;;;;;2193277;59;1794;-24
2024/03/19 09:43:08;;;;;;;;;;;;;;;;;;2193791;59;1875;-24
2024/03/19 09:45:39;;;;;;;;;;;;;;;;;;2194259;59;1640;-24
2024/03/19 09:48:10;;;;;;;;;;;;;;;;;;2192234;66;2317;-24
2024/03/19 09:50:41;;;;;;;;;;;;;;;;;;2193928;66;1380;-24
2024/03/19 09:53:16;;;;;;;;;;;;;;;;;;2192219;59;2375;-24
2024/03/19 09:55:47;;;;;;;;;;;;;;;;;;2189269;67;1383;-24
2024/03/19 09:58:19;;;;;;;;;;;;;;;;;;2194157;67;2422;-24
2024/03/19 10:00:52;;;;;;;;;;;;;;;;;;2191626;66;2495;-24
2024/03/19 10:03:22;;;;;;;;;;;;;;;;;;2193101;59;2682;-24
2024/03/19 10:05:53;;;;;;;;;;;;;;;;;;2200846;67;1717;-24
2024/03/19 10:08:23;;;;;;;;;;;;;;;;;;2190691;66;2240;-24
2024/03/19 10:10:53;;;;;;;;;;;;;;;;;;2193141;59;1636;-24
2024/03/19 10:13:23;;;;;;;;;;;;;;;;;;2192262;64;1507;-24
2024/03/19 10:15:57;;;;;;;;;;;;;;;;;;2191396;66;2571;-24
2024/03/19 10:18:28;;;;;;;;;;;;;;;;;;2191561;67;1730;-24
2024/03/19 10:20:58;;;;;;;;;;;;;;;;;;2192911;66;1607;-24
2024/03/19 10:23:30;;;;;;;;;;;;;;;;;;2193706;59;1776;-24
2024/03/19 10:26:00;;;;;;;;;;;;;;;;;;2188870;66;1396;-24
2024/03/19 10:28:30;;;;;;;;;;;;;;;;;;2187579;67;1949;-24
2024/03/19 10:31:01;;;;;;;;;;;;;;;;;;2188317;67;1607;-24
2024/03/19 10:33:32;;;;;;;;;;;;;;;;;;2193223;59;2005;-24
2024/03/19 10:36:02;;;;;;;;;;;;;;;;;;2188688;59;2407;-24
2024/03/19 10:38:33;;;;;;;;;;;;;;;;;;2188987;59;1713;-24
2024/03/19 10:41:03;;;;;;;;;;;;;;;;;;2192485;59;3067;-24
2024/03/19 10:43:34;;;;;;;;;;;;;;;;;;2193320;67;1286;-24
2024/03/19 10:46:05;;;;;;;;;;;;;;;;;;2192260;59;1734;-24
2024/03/19 10:48:36;;;;;;;;;;;;;;;;;;2191062;59;2017;-24
2024/03/19 10:51:09;;;;;;;;;;;;;;;;;;2189941;59;1652;-24
2024/03/19 10:53:41;;;;;;;;;;;;;;;;;;2194232;67;1760;-24
2024/03/19 10:56:13;;;;;;;;;;;;;;;;;;2191161;66;1891;-24
2024/03/19 10:58:46;;;;;;;;;;;;;;;;;;2194393;59;1892;-24
2024/03/19 11:01:16;;;;;;;;;;;;;;;;;;2193697;67;1236;-24
2024/03/19 11:03:51;;;;;;;;;;;;;;;;;;2190999;66;1642;-24
2024/03/19 11:06:23;;;;;;;;;;;;;;;;;;2195134;67;1512;-24
2024/03/19 11:08:53;;;;;;;;;;;;;;;;;;2189934;59;2038;-24
2024/03/19 11:11:29;;;;;;;;;;;;;;;;;;2194722;59;1309;-22
2024/03/19 11:14:00;;;;;;;;;;;;;;;;;;2193329;59;1430;-22
2024/03/19 11:16:38;;;;;;;;;;;;;;;;;;2194985;59;2024;-22
2024/03/19 11:19:20;;;;;;;;;;;;;;;;;;2192833;66;1374;-22
2024/03/19 11:21:51;;;;;;;;;;;;;;;;;;2192834;66;1503;-22
2024/03/19 11:24:22;;;;;;;;;;;;;;;;;;2193583;59;2269;-22
2024/03/19 11:26:59;;;;;;;;;;;;;;;;;;2190247;66;1708;-24
2024/03/19 11:29:33;;;;;;;;;;;;;;;;;;2195420;59;1642;-24
2024/03/19 11:32:06;;;;;;;;;;;;;;;;;;2190088;67;1183;-24
2024/03/19 11:34:36;;;;;;;;;;;;;;;;;;2190381;59;1761;-24
2024/03/19 11:37:09;;;;;;;;;;;;;;;;;;2192206;59;1221;-24
2024/03/19 11:39:40;;;;;;;;;;;;;;;;;;2194483;59;1678;-24
2024/03/19 11:42:11;;;;;;;;;;;;;;;;;;2190759;67;1716;-24
2024/03/19 11:44:41;;;;;;;;;;;;;;;;;;2193273;58;1748;-24
2024/03/19 11:47:12;;;;;;;;;;;;;;;;;;2189366;59;2006;-25
2024/03/19 11:49:43;;;;;;;;;;;;;;;;;;2195163;67;1652;-24
2024/03/19 11:52:14;;;;;;;;;;;;;;;;;;2190140;67;1573;-24
2024/03/19 11:54:45;;;;;;;;;;;;;;;;;;2192383;67;1816;-24
2024/03/19 11:57:16;;;;;;;;;;;;;;;;;;2193590;59;2411;-24
2024/03/19 11:59:47;;;;;;;;;;;;;;;;;;2191965;59;1606;-24
2024/03/19 12:02:17;;;;;;;;;;;;;;;;;;2193088;67;1280;-24
2024/03/19 12:04:47;;;;;;;;;;;;;;;;;;2194819;59;1604;-24
2024/03/19 12:07:17;;;;;;;;;;;;;;;;;;2189729;66;2004;-22
2024/03/19 12:09:48;;;;;;;;;;;;;;;;;;2192439;59;1747;-22
2024/03/19 12:12:18;;;;;;;;;;;;;;;;;;2192625;59;1464;-25
2024/03/19 12:14:48;;;;;;;;;;;;;;;;;;2194850;59;1408;-24
2024/03/19 12:17:18;;;;;;;;;;;;;;;;;;2188863;59;1338;-24
2024/03/19 12:19:49;;;;;;;;;;;;;;;;;;2194254;67;1348;-22
2024/03/19 12:22:19;;;;;;;;;;;;;;;;;;2198544;59;2402;-19
2024/03/19 12:24:51;;;;;;;;;;;;;;;;;;2194601;59;1881;-19
2024/03/19 12:27:21;;;;;;;;;;;;;;;;;;2195697;59;1930;-19
2024/03/19 12:29:51;;;;;;;;;;;;;;;;;;2195025;59;1854;-19
2024/03/19 12:32:36;;;;;;;;;;;;;;;;;;2193004;66;2258;-19
2024/03/19 12:35:08;;;;;;;;;;;;;;;;;;2188475;59;2001;-19
2024/03/19 12:37:39;;;;;;;;;;;;;;;;;;2194342;58;1637;-19
2024/03/19 12:40:11;;;;;;;;;;;;;;;;;;2192155;58;2471;-19
2024/03/19 12:42:44;;;;;;;;;;;;;;;;;;2189511;67;2262;-19
2024/03/19 12:45:15;;;;;;;;;;;;;;;;;;2189269;59;1824;-19
2024/03/19 12:47:46;;;;;;;;;;;;;;;;;;2189495;59;2111;-20
2024/03/19 12:50:17;;;;;;;;;;;;;;;;;;2190582;59;2607;-19
2024/03/19 12:52:47;;;;;;;;;;;;;;;;;;2190483;59;2185;-19
2024/03/19 12:55:18;;;;;;;;;;;;;;;;;;2192028;59;2221;-19
2024/03/19 12:57:48;;;;;;;;;;;;;;;;;;2192525;59;2126;-19
2024/03/19 13:00:22;;;;;;;;;;;;;;;;;;2186745;59;2051;-19
2024/03/19 13:02:54;;;;;;;;;;;;;;;;;;2193295;67;1460;-19
2024/03/19 13:05:25;;;;;;;;;;;;;;;;;;2188911;59;1952;-19
2024/03/19 13:07:55;;;;;;;;;;;;;;;;;;2192568;67;1902;-19
2024/03/19 13:10:26;;;;;;;;;;;;;;;;;;2190032;59;1313;-19
2024/03/19 13:12:56;;;;;;;;;;;;;;;;;;2193068;59;1630;-19
2024/03/19 13:15:26;;;;;;;;;;;;;;;;;;2193954;67;1761;-19
2024/03/19 13:17:57;;;;;;;;;;;;;;;;;;2191176;67;1898;-19
2024/03/19 13:20:27;;;;;;;;;;;;;;;;;;2194116;67;1489;-19
2024/03/19 13:22:57;;;;;;;;;;;;;;;;;;2193637;59;1551;-19
2024/03/19 13:25:28;;;;;;;;;;;;;;;;;;2194136;59;1462;-19
2024/03/19 13:27:59;;;;;;;;;;;;;;;;;;2193384;67;2007;-19
2024/03/19 13:30:29;;;;;;;;;;;;;;;;;;2194671;58;1565;-19
2024/03/19 13:33:00;;;;;;;;;;;;;;;;;;2189913;67;2055;-19
2024/03/19 13:35:30;;;;;;;;;;;;;;;;;;2191555;67;2287;-19
2024/03/19 13:38:00;;;;;;;;;;;;;;;;;;2193857;58;1320;-19
2024/03/19 13:40:32;;;;;;;;;;;;;;;;;;2194800;59;2003;-19
2024/03/19 13:43:03;;;;;;;;;;;;;;;;;;2193367;67;1288;-18
2024/03/19 13:45:33;;;;;;;;;;;;;;;;;;2196341;59;1489;-19
2024/03/19 13:48:04;;;;;;;;;;;;;;;;;;2195817;58;2006;-18
2024/03/19 13:50:34;;;;;;;;;;;;;;;;;;2196562;59;2555;-19
2024/03/19 13:53:05;;;;;;;;;;;;;;;;;;2194536;59;2078;-18
2024/03/19 13:55:36;;;;;;;;;;;;;;;;;;2192837;59;1581;-19
2024/03/19 13:58:06;;;;;;;;;;;;;;;;;;2188740;67;1570;-19
2024/03/19 14:00:37;;;;;;;;;;;;;;;;;;2195017;59;1486;-19
2024/03/19 14:03:11;;;;;;;;;;;;;;;;;;2192748;67;1128;-18
2024/03/19 14:05:41;;;;;;;;;;;;;;;;;;2194627;67;1149;-18
2024/03/19 14:08:12;;;;;;;;;;;;;;;;;;2190022;59;1933;-18
2024/03/19 14:10:42;;;;;;;;;;;;;;;;;;2192258;59;1551;-18
2024/03/19 14:13:14;;;;;;;;;;;;;;;;;;2190963;59;1487;-18
2024/03/19 14:15:44;;;;;;;;;;;;;;;;;;2193992;67;1157;-19
2024/03/19 14:18:15;;;;;;;;;;;;;;;;;;2189701;67;1914;-19
2024/03/19 14:20:45;;;;;;;;;;;;;;;;;;2191985;67;1240;-18
2024/03/19 14:23:15;;;;;;;;;;;;;;;;;;2193255;59;1786;-19
2024/03/19 14:25:46;;;;;;;;;;;;;;;;;;2191173;67;1274;-19
2024/03/19 14:28:16;;;;;;;;;;;;;;;;;;2193214;67;2001;-21
2024/03/19 14:30:50;;;;;;;;;;;;;;;;;;2191195;67;1830;-21
2024/03/19 14:33:23;;;;;;;;;;;;;;;;;;2192670;59;1769;-21
2024/03/19 14:35:54;;;;;;;;;;;;;;;;;;2199348;67;1485;-21
2024/03/19 14:38:25;;;;;;;;;;;;;;;;;;2192660;58;1611;-21
2024/03/19 14:40:55;;;;;;;;;;;;;;;;;;2193171;59;1844;-21
2024/03/19 14:43:25;;;;;;;;;;;;;;;;;;2185627;67;1664;-21
2024/03/19 14:45:56;;;;;;;;;;;;;;;;;;2190061;59;1791;-21
2024/03/19 14:48:27;;;;;;;;;;;;;;;;;;2190784;58;2314;-21
2024/03/19 14:50:57;;;;;;;;;;;;;;;;;;2190072;67;1548;-21
2024/03/19 14:53:27;;;;;;;;;;;;;;;;;;2191219;67;1623;-22
2024/03/19 14:55:58;;;;;;;;;;;;;;;;;;2191567;59;2111;-21
2024/03/19 14:58:28;;;;;;;;;;;;;;;;;;2190797;67;2447;-28
2024/03/19 15:00:58;;;;;;;;;;;;;;;;;;2191530;59;2689;-21
2024/03/19 15:03:29;;;;;;;;;;;;;;;;;;2189756;67;1605;-21
2024/03/19 15:05:59;;;;;;;;;;;;;;;;;;2191944;59;1954;-21
2024/03/19 15:08:29;;;;;;;;;;;;;;;;;;2188110;59;2109;-21
2024/03/19 15:11:00;;;;;;;;;;;;;;;;;;2193356;59;2449;-21
2024/03/19 15:13:30;;;;;;;;;;;;;;;;;;2191424;58;2243;-21
2024/03/19 15:16:01;;;;;;;;;;;;;;;;;;2191875;58;2175;-21
2024/03/19 15:18:31;;;;;;;;;;;;;;;;;;2190614;67;1362;-21
2024/03/19 15:21:02;;;;;;;;;;;;;;;;;;2189561;59;1627;-21
2024/03/19 15:23:32;;;;;;;;;;;;;;;;;;2188957;58;2043;-21
2024/03/19 15:26:03;;;;;;;;;;;;;;;;;;2191708;59;1578;-21
2024/03/19 15:28:33;;;;;;;;;;;;;;;;;;2189002;59;2149;-21
2024/03/19 15:31:06;;;;;;;;;;;;;;;;;;2186516;67;1641;-21
2024/03/19 15:33:37;;;;;;;;;;;;;;;;;;2190626;59;1792;-21
2024/03/19 15:36:08;;;;;;;;;;;;;;;;;;2189148;67;2629;-21
2024/03/19 15:38:38;;;;;;;;;;;;;;;;;;2192968;59;1640;-21
2024/03/19 15:41:11;;;;;;;;;;;;;;;;;;2187430;59;2244;-21
2024/03/19 15:43:41;;;;;;;;;;;;;;;;;;2189794;59;3867;-21
2024/03/19 15:46:12;;;;;;;;;;;;;;;;;;2189891;59;2044;-21
2024/03/19 15:48:42;;;;;;;;;;;;;;;;;;2191155;66;2168;-21
2024/03/19 15:51:13;;;;;;;;;;;;;;;;;;2189894;67;1419;-20
2024/03/19 15:53:43;;;;;;;;;;;;;;;;;;2189847;59;2336;-21
2024/03/19 15:56:13;;;;;;;;;;;;;;;;;;2187402;59;2211;-21
2024/03/19 15:58:43;;;;;;;;;;;;;;;;;;2185443;59;2345;-21
2024/03/19 16:01:14;;;;;;;;;;;;;;;;;;2187809;59;2673;-20
2024/03/19 16:03:46;;;;;;;;;;;;;;;;;;2189493;59;2625;-21
2024/03/19 16:06:17;;;;;;;;;;;;;;;;;;2189725;59;2152;-21
2024/03/19 16:08:47;;;;;;;;;;;;;;;;;;2186736;59;2045;-21
2024/03/19 16:11:17;;;;;;;;;;;;;;;;;;2189898;58;2200;-20
2024/03/19 16:13:49;;;;;;;;;;;;;;;;;;2192035;58;1893;-20
2024/03/19 16:16:19;;;;;;;;;;;;;;;;;;2190489;58;2071;-20
2024/03/19 16:18:49;;;;;;;;;;;;;;;;;;2191447;60;1645;-20
2024/03/19 16:21:20;;;;;;;;;;;;;;;;;;2190703;59;2551;-20
2024/03/19 16:23:50;;;;;;;;;;;;;;;;;;2190070;59;1640;-20
2024/03/19 16:26:20;;;;;;;;;;;;;;;;;;2190022;59;2102;-21
2024/03/19 16:28:51;;;;;;;;;;;;;;;;;;2193738;66;1941;-21
2024/03/19 16:31:21;;;;;;;;;;;;;;;;;;2191270;59;2140;-21
2024/03/19 16:33:51;;;;;;;;;;;;;;;;;;2193441;59;1622;-20
2024/03/19 16:36:22;;;;;;;;;;;;;;;;;;2189121;67;1606;-20
2024/03/19 16:38:53;;;;;;;;;;;;;;;;;;2190264;59;2547;-20
2024/03/19 16:41:23;;;;;;;;;;;;;;;;;;2192639;59;2268;-20
2024/03/19 16:43:54;;;;;;;;;;;;;;;;;;2190056;67;2477;-21
2024/03/19 16:46:24;;;;;;;;;;;;;;;;;;2192063;59;1637;-20
2024/03/19 16:48:54;;;;;;;;;;;;;;;;;;2191088;59;1941;-20
2024/03/19 16:51:24;;;;;;;;;;;;;;;;;;2192530;67;2395;-20
2024/03/19 16:53:55;;;;;;;;;;;;;;;;;;2194421;66;1833;-20
2024/03/19 16:56:28;;;;;;;;;;;;;;;;;;2192541;59;2441;-20
2024/03/19 16:58:58;;;;;;;;;;;;;;;;;;2190198;67;1412;-20
2024/03/19 17:01:29;;;;;;;;;;;;;;;;;;2190929;59;2595;-21
2024/03/19 17:03:59;;;;;;;;;;;;;;;;;;2193720;59;2483;-20
2024/03/19 17:06:29;;;;;;;;;;;;;;;;;;2193684;67;1742;-20
2024/03/19 17:09:00;;;;;;;;;;;;;;;;;;2193698;59;1943;-21
2024/03/19 17:11:30;;;;;;;;;;;;;;;;;;2187045;59;1767;-20
2024/03/19 17:14:01;;;;;;;;;;;;;;;;;;2194121;58;1705;-20
2024/03/19 17:16:33;;;;;;;;;;;;;;;;;;2193276;58;1728;-20
2024/03/19 17:19:04;;;;;;;;;;;;;;;;;;2194037;67;1507;-20
2024/03/19 17:21:34;;;;;;;;;;;;;;;;;;2192732;59;1393;-20
2024/03/19 17:24:05;;;;;;;;;;;;;;;;;;2193435;59;1712;-20
2024/03/19 17:26:36;;;;;;;;;;;;;;;;;;2192437;67;1541;-20